createdAt,value
2022-09-21T00:01:27.555Z,8.70
2022-09-21T00:03:58.507Z,8.70
2022-09-21T00:06:27.758Z,8.70
2022-09-21T00:08:55.767Z,8.80
2022-09-21T00:11:28.732Z,8.80
2022-09-21T00:14:07.228Z,8.80
2022-09-21T00:16:35.071Z,8.80
2022-09-21T00:19:02.651Z,8.80
2022-09-21T00:21:30.539Z,8.70
2022-09-21T00:23:59.412Z,8.80
2022-09-21T00:26:27.654Z,8.80
2022-09-21T00:29:00.177Z,8.80
2022-09-21T00:31:29.094Z,8.80
2022-09-21T00:33:59.168Z,8.90
2022-09-21T00:36:28.274Z,8.90
2022-09-21T00:38:59.153Z,8.90
2022-09-21T00:41:27.810Z,8.90
2022-09-21T00:44:17.028Z,8.90
2022-09-21T00:46:46.715Z,8.90
2022-09-21T00:49:15.124Z,9.00
2022-09-21T00:51:43.276Z,8.90
2022-09-21T00:54:23.340Z,9.00
2022-09-21T00:56:51.869Z,8.90
2022-09-21T00:59:21.962Z,8.90
2022-09-21T01:01:50.812Z,8.90
2022-09-21T01:04:18.929Z,8.90
2022-09-21T01:06:47.887Z,8.90
2022-09-21T01:09:16.168Z,8.80
2022-09-21T01:12:00.483Z,8.80
2022-09-21T01:15:09.982Z,8.80
2022-09-21T01:17:46.529Z,8.80
2022-09-21T01:20:40.038Z,8.80
2022-09-21T01:23:36.107Z,8.80
2022-09-21T01:26:15.250Z,8.80
2022-09-21T01:29:10.395Z,8.80
2022-09-21T01:31:49.495Z,8.80
2022-09-21T01:34:26.998Z,8.90
2022-09-21T01:36:58.663Z,8.90
2022-09-21T01:39:27.925Z,8.90
2022-09-21T01:41:56.358Z,8.90
2022-09-21T01:44:29.042Z,8.90
2022-09-21T01:46:57.962Z,8.90
2022-09-21T01:49:31.337Z,9.00
2022-09-21T01:52:05.039Z,9.00
2022-09-21T01:54:41.753Z,9.00
2022-09-21T01:57:15.032Z,9.10
2022-09-21T01:59:54.581Z,9.10
2022-09-21T02:02:36.174Z,9.10
2022-09-21T02:05:05.537Z,9.10
2022-09-21T02:07:33.806Z,9.10
2022-09-21T02:10:03.158Z,9.00
2022-09-21T02:12:34.473Z,9.10
2022-09-21T02:15:03.935Z,9.10
2022-09-21T02:18:15.806Z,9.10
2022-09-21T02:20:55.433Z,9.10
2022-09-21T02:23:43.559Z,9.10
2022-09-21T02:26:25.125Z,9.10
2022-09-21T02:29:06.477Z,9.10
2022-09-21T02:31:48.108Z,9.10
2022-09-21T02:34:29.639Z,9.10
2022-09-21T02:37:22.291Z,9.10
2022-09-21T02:40:26.420Z,9.20
2022-09-21T02:42:59.318Z,9.10
2022-09-21T02:45:30.870Z,9.10
2022-09-21T02:48:07.405Z,9.10
2022-09-21T02:50:44.638Z,9.10
2022-09-21T02:53:14.216Z,9.10
2022-09-21T02:55:42.522Z,9.10
2022-09-21T02:58:13.604Z,9.20
2022-09-21T03:00:41.085Z,9.10
2022-09-21T03:03:20.193Z,9.10
2022-09-21T03:05:53.577Z,9.10
2022-09-21T03:08:22.127Z,9.10
2022-09-21T03:10:50.773Z,9.10
2022-09-21T03:13:18.970Z,9.10
2022-09-21T03:15:47.378Z,9.10
2022-09-21T03:18:15.098Z,9.10
2022-09-21T03:20:46.185Z,9.10
2022-09-21T03:23:15.556Z,9.10
2022-09-21T03:25:46.279Z,9.10
2022-09-21T03:28:14.455Z,9.20
2022-09-21T03:30:42.522Z,9.20
2022-09-21T03:33:10.962Z,9.20
2022-09-21T03:35:38.309Z,9.10
2022-09-21T03:38:05.982Z,9.10
2022-09-21T03:40:33.775Z,9.20
2022-09-21T03:43:01.217Z,9.10
2022-09-21T03:45:28.602Z,9.10
2022-09-21T03:47:57.774Z,9.10
2022-09-21T03:50:28.308Z,9.10
2022-09-21T03:52:56.457Z,9.10
2022-09-21T03:55:24.092Z,9.00
2022-09-21T03:57:51.967Z,9.00
2022-09-21T04:00:19.905Z,9.00
2022-09-21T04:02:47.377Z,8.90
2022-09-21T04:05:16.387Z,8.90
2022-09-21T04:07:45.888Z,8.90
2022-09-21T04:10:16.094Z,8.80
2022-09-21T04:12:44.854Z,8.80
2022-09-21T04:15:19.671Z,8.90
2022-09-21T04:17:50.155Z,8.90
2022-09-21T04:20:18.116Z,8.90
2022-09-21T04:22:46.759Z,8.90
2022-09-21T04:25:15.333Z,8.80
2022-09-21T04:27:43.231Z,8.80
2022-09-21T04:30:15.702Z,8.80
2022-09-21T04:32:43.150Z,8.70
2022-09-21T04:35:11.077Z,8.80
2022-09-21T04:37:38.572Z,8.80
2022-09-21T04:40:07.547Z,8.80
2022-09-21T04:42:35.067Z,8.80
2022-09-21T04:45:02.382Z,8.70
2022-09-21T04:47:30.958Z,8.70
2022-09-21T04:49:58.239Z,8.80
2022-09-21T04:52:25.967Z,8.80
2022-09-21T04:54:53.372Z,8.70
2022-09-21T04:57:20.709Z,8.70
2022-09-21T04:59:48.083Z,8.80
2022-09-21T05:02:15.525Z,8.80
2022-09-21T05:04:44.647Z,8.80
2022-09-21T05:07:14.854Z,8.80
2022-09-21T05:10:00.843Z,8.70
2022-09-21T05:12:28.243Z,8.80
2022-09-21T05:14:56.109Z,8.80
2022-09-21T05:17:23.905Z,8.80
2022-09-21T05:19:53.370Z,8.90
2022-09-21T05:22:21.685Z,8.90
2022-09-21T05:24:49.053Z,9.00
2022-09-21T05:27:16.393Z,9.00
2022-09-21T05:29:44.152Z,9.00
2022-09-21T05:32:33.059Z,9.10
2022-09-21T05:35:23.020Z,9.20
2022-09-21T05:38:08.540Z,9.30
2022-09-21T05:40:36.213Z,9.40
2022-09-21T05:43:03.878Z,9.50
2022-09-21T05:45:31.668Z,9.50
2022-09-21T05:48:07.602Z,9.70
2022-09-21T05:51:02.418Z,9.70
2022-09-21T05:53:53.606Z,9.80
2022-09-21T05:56:57.881Z,10.00
2022-09-21T05:59:30.619Z,10.10
2022-09-21T06:02:11.060Z,10.20
2022-09-21T06:04:39.909Z,10.30
2022-09-21T06:07:07.252Z,10.30
2022-09-21T06:09:34.586Z,10.30
2022-09-21T06:12:02.565Z,10.30
2022-09-21T06:14:31.051Z,10.30
2022-09-21T06:16:58.468Z,10.30
2022-09-21T06:19:25.927Z,10.30
2022-09-21T06:21:53.264Z,10.30
2022-09-21T06:24:23.515Z,10.30
2022-09-21T06:26:51.897Z,10.30
2022-09-21T06:29:23.522Z,10.30
2022-09-21T06:31:51.408Z,10.30
2022-09-21T06:34:18.867Z,10.30
2022-09-21T06:36:46.261Z,10.30
2022-09-21T06:39:13.992Z,10.20
2022-09-21T06:41:41.360Z,10.30
2022-09-21T06:44:10.777Z,10.30
2022-09-21T06:46:38.124Z,10.30
2022-09-21T06:49:05.716Z,10.30
2022-09-21T06:51:33.105Z,10.20
2022-09-21T06:54:01.379Z,10.20
2022-09-21T06:56:28.723Z,10.20
2022-09-21T06:58:56.136Z,10.30
2022-09-21T07:01:24.662Z,10.30
2022-09-21T07:03:52.774Z,10.40
2022-09-21T07:06:20.457Z,10.40
2022-09-21T07:11:35.440Z,10.50
2022-09-21T07:14:04.292Z,10.50
2022-09-21T07:16:31.778Z,10.60
2022-09-21T07:19:10.191Z,10.60
2022-09-21T07:21:38.714Z,10.60
2022-09-21T07:24:11.695Z,10.80
2022-09-21T07:26:40.273Z,10.80
2022-09-21T07:29:07.796Z,10.90
2022-09-21T07:31:35.608Z,11.00
2022-09-21T07:34:03.016Z,11.10
2022-09-21T07:36:30.511Z,11.00
2022-09-21T07:38:57.858Z,11.10
2022-09-21T07:41:25.299Z,11.10
2022-09-21T07:43:53.228Z,11.10
2022-09-21T07:46:20.710Z,11.10
2022-09-21T07:48:48.159Z,11.10
2022-09-21T07:51:16.029Z,11.00
2022-09-21T07:53:47.174Z,11.10
2022-09-21T07:56:17.123Z,11.00
2022-09-21T07:59:03.326Z,11.00
2022-09-21T08:01:31.715Z,11.00
2022-09-21T08:04:00.085Z,11.00
2022-09-21T08:06:30.516Z,11.20
2022-09-21T08:08:58.383Z,11.20
2022-09-21T08:11:27.901Z,11.10
2022-09-21T08:13:57.735Z,11.20
2022-09-21T08:16:26.007Z,11.30
2022-09-21T08:18:53.730Z,11.30
2022-09-21T08:21:22.568Z,11.30
2022-09-21T08:23:50.014Z,11.40
2022-09-21T08:26:20.033Z,11.60
2022-09-21T08:28:49.900Z,11.70
2022-09-21T08:31:22.516Z,11.90
2022-09-21T08:33:51.147Z,12.20
2022-09-21T08:36:19.280Z,12.50
2022-09-21T08:38:48.159Z,12.50
2022-09-21T08:41:20.219Z,12.70
2022-09-21T08:43:56.346Z,12.90
2022-09-21T08:46:27.894Z,13.10
2022-09-21T08:49:00.013Z,13.30
2022-09-21T08:51:33.021Z,13.50
2022-09-21T08:54:07.971Z,13.70
2022-09-21T08:57:00.978Z,13.80
2022-09-21T08:59:24.536Z,14.00
2022-09-21T09:02:07.366Z,14.10
2022-09-21T09:05:08.137Z,14.50
2022-09-21T09:08:04.353Z,14.60
2022-09-21T09:10:51.811Z,14.50
2022-09-21T09:13:42.237Z,14.60
2022-09-21T09:16:35.022Z,14.60
2022-09-21T09:19:20.695Z,14.70
2022-09-21T09:21:48.501Z,14.60
2022-09-21T09:24:41.002Z,14.50
2022-09-21T09:27:26.327Z,14.20
2022-09-21T09:30:03.338Z,14.00
2022-09-21T09:33:02.124Z,14.30
2022-09-21T09:35:37.645Z,14.70
2022-09-21T09:38:33.247Z,15.00
2022-09-21T09:41:15.611Z,15.40
2022-09-21T09:44:14.410Z,15.60
2022-09-21T09:46:45.152Z,15.70
2022-09-21T09:49:37.873Z,15.40
2022-09-21T09:52:07.848Z,15.50
2022-09-21T09:54:36.266Z,15.80
2022-09-21T09:57:05.259Z,15.70
2022-09-21T09:59:54.686Z,15.90
2022-09-21T10:02:27.393Z,16.20
2022-09-21T10:05:06.439Z,15.70
2022-09-21T10:07:39.434Z,15.70
2022-09-21T10:10:23.524Z,15.80
2022-09-21T10:12:53.245Z,15.70
2022-09-21T10:15:26.478Z,15.90
2022-09-21T10:18:11.834Z,15.90
2022-09-21T10:20:39.199Z,15.90
2022-09-21T10:23:06.766Z,16.20
2022-09-21T10:25:39.979Z,16.50
2022-09-21T10:28:10.880Z,17.00
2022-09-21T10:30:38.888Z,17.10
2022-09-21T10:33:22.447Z,17.20
2022-09-21T10:35:53.824Z,17.30
2022-09-21T10:38:29.277Z,17.20
2022-09-21T10:40:56.861Z,16.70
2022-09-21T10:43:45.202Z,16.50
2022-09-21T10:46:13.979Z,16.20
2022-09-21T10:48:45.980Z,16.00
2022-09-21T10:51:29.227Z,15.70
2022-09-21T10:53:57.719Z,15.50
2022-09-21T10:56:25.438Z,15.50
2022-09-21T10:59:11.012Z,15.50
2022-09-21T11:01:46.148Z,15.20
2022-09-21T11:04:17.818Z,15.10
2022-09-21T11:06:49.012Z,15.00
2022-09-21T11:09:25.499Z,14.90
2022-09-21T11:11:58.236Z,14.80
2022-09-21T11:15:03.112Z,14.70
2022-09-21T11:17:43.288Z,15.00
2022-09-21T11:20:28.051Z,16.00
2022-09-21T11:22:59.902Z,16.80
2022-09-21T11:25:42.065Z,17.70
2022-09-21T11:28:24.348Z,17.90
2022-09-21T11:31:00.721Z,18.40
2022-09-21T11:33:31.754Z,17.80
2022-09-21T11:36:24.735Z,17.30
2022-09-21T11:39:26.558Z,17.40
2022-09-21T11:42:12.426Z,16.50
2022-09-21T11:44:53.207Z,15.80
2022-09-21T11:47:37.537Z,15.70
2022-09-21T11:50:30.545Z,15.50
2022-09-21T11:53:14.427Z,16.40
2022-09-21T11:56:00.561Z,17.20
2022-09-21T11:58:39.728Z,18.00
2022-09-21T12:01:15.577Z,18.50
2022-09-21T12:04:19.920Z,18.20
2022-09-21T12:07:25.244Z,18.30
2022-09-21T12:10:20.860Z,17.90
2022-09-21T12:13:15.509Z,17.70
2022-09-21T12:15:56.111Z,18.50
2022-09-21T12:18:37.520Z,18.60
2022-09-21T12:21:25.206Z,17.90
2022-09-21T12:23:58.071Z,18.30
2022-09-21T12:26:37.170Z,18.40
2022-09-21T12:29:19.662Z,18.20
2022-09-21T12:31:54.984Z,18.00
2022-09-21T12:34:30.176Z,18.40
2022-09-21T12:37:18.906Z,18.40
2022-09-21T12:40:06.999Z,18.70
2022-09-21T12:42:55.983Z,18.40
2022-09-21T12:45:29.923Z,18.50
2022-09-21T12:48:39.364Z,18.90
2022-09-21T12:51:22.982Z,19.30
2022-09-21T12:53:53.565Z,19.00
2022-09-21T12:56:26.586Z,18.80
2022-09-21T12:59:00.437Z,18.90
2022-09-21T13:01:31.671Z,19.00
2022-09-21T13:04:38.425Z,19.10
2022-09-21T13:07:32.718Z,19.10
2022-09-21T13:10:31.665Z,18.60
2022-09-21T13:13:02.764Z,18.40
2022-09-21T13:15:33.568Z,18.50
2022-09-21T13:18:32.584Z,18.70
2022-09-21T13:21:15.207Z,18.60
2022-09-21T13:23:42.978Z,18.50
2022-09-21T13:26:14.276Z,18.40
2022-09-21T13:29:05.808Z,18.10
2022-09-21T13:32:02.038Z,18.20
2022-09-21T13:34:36.009Z,17.80
2022-09-21T13:37:13.865Z,17.90
2022-09-21T13:39:45.020Z,18.00
2022-09-21T13:42:30.912Z,17.90
2022-09-21T13:45:04.734Z,17.80
2022-09-21T13:47:40.621Z,17.80
2022-09-21T13:50:32.640Z,17.80
2022-09-21T13:53:06.191Z,17.60
2022-09-21T13:55:49.187Z,17.30
2022-09-21T13:58:37.871Z,17.30
2022-09-21T14:01:35.453Z,17.30
2022-09-21T14:04:15.467Z,17.50
2022-09-21T14:06:47.564Z,17.90
2022-09-21T14:09:28.700Z,18.00
2022-09-21T14:12:01.678Z,18.40
2022-09-21T14:14:41.494Z,18.40
2022-09-21T14:17:37.725Z,18.40
2022-09-21T14:20:32.665Z,18.30
2022-09-21T14:23:27.869Z,18.90
2022-09-21T14:25:57.954Z,19.00
2022-09-21T14:28:39.365Z,19.30
2022-09-21T14:31:19.042Z,19.00
2022-09-21T14:33:50.149Z,19.30
2022-09-21T14:36:22.248Z,18.60
2022-09-21T14:39:00.501Z,17.80
2022-09-21T14:41:37.947Z,17.70
2022-09-21T14:44:05.715Z,17.20
2022-09-21T14:47:39.421Z,17.10
2022-09-21T14:50:29.004Z,16.60
2022-09-21T14:53:35.551Z,16.10
2022-09-21T14:56:18.236Z,15.90
2022-09-21T14:59:07.588Z,15.80
2022-09-21T15:01:37.845Z,16.30
2022-09-21T15:04:46.259Z,16.50
2022-09-21T15:08:07.545Z,16.70
2022-09-21T15:11:06.659Z,16.70
2022-09-21T15:13:46.553Z,16.80
2022-09-21T15:16:41.618Z,16.70
2022-09-21T15:19:13.204Z,16.70
2022-09-21T15:21:48.758Z,16.60
2022-09-21T15:24:34.316Z,16.40
2022-09-21T15:27:14.961Z,16.40
2022-09-21T15:29:53.180Z,16.20
2022-09-21T15:32:37.253Z,16.10
2022-09-21T15:35:16.213Z,15.90
2022-09-21T15:37:45.920Z,15.90
2022-09-21T15:40:23.633Z,15.70
2022-09-21T15:43:04.719Z,15.60
2022-09-21T15:45:47.762Z,15.40
2022-09-21T15:48:15.138Z,15.30
2022-09-21T15:50:44.995Z,15.10
2022-09-21T15:53:44.174Z,15.00
2022-09-21T15:56:22.098Z,14.90
2022-09-21T15:58:50.262Z,14.80
2022-09-21T16:01:21.613Z,14.70
2022-09-21T16:04:01.579Z,14.60
2022-09-21T16:06:41.568Z,14.60
2022-09-21T16:09:31.253Z,14.40
2022-09-21T16:11:58.769Z,14.40
2022-09-21T16:14:45.255Z,14.40
2022-09-21T16:17:12.717Z,14.30
2022-09-21T16:19:44.564Z,14.20
2022-09-21T16:22:19.876Z,14.20
2022-09-21T16:24:52.936Z,14.10
2022-09-21T16:27:23.163Z,14.10
2022-09-21T16:29:52.297Z,14.10
2022-09-21T16:32:28.933Z,14.10
2022-09-21T16:35:31.330Z,14.00
2022-09-21T16:37:59.882Z,13.90
2022-09-21T16:40:28.672Z,13.90
2022-09-21T16:42:56.736Z,13.80
2022-09-21T16:45:31.883Z,13.70
2022-09-21T16:47:59.841Z,13.60
2022-09-21T16:50:27.180Z,13.50
2022-09-21T16:52:54.492Z,13.40
2022-09-21T16:55:25.586Z,13.40
2022-09-21T16:57:56.089Z,13.20
2022-09-21T17:00:23.690Z,13.20
2022-09-21T17:02:51.192Z,13.10
2022-09-21T17:05:19.438Z,13.10
2022-09-21T17:07:55.958Z,13.10
2022-09-21T17:10:31.785Z,12.90
2022-09-21T17:12:59.373Z,12.90
2022-09-21T17:15:28.526Z,12.90
2022-09-21T17:17:58.170Z,12.80
2022-09-21T17:20:38.205Z,12.80
2022-09-21T17:23:06.213Z,12.90
2022-09-21T17:25:35.144Z,12.90
2022-09-21T17:28:05.256Z,12.70
2022-09-21T17:30:32.668Z,12.70
2022-09-21T17:33:01.421Z,12.70
2022-09-21T17:35:40.484Z,12.70
2022-09-21T17:38:12.443Z,12.60
2022-09-21T17:40:43.085Z,12.60
2022-09-21T17:43:13.657Z,12.50
2022-09-21T17:45:57.057Z,12.60
2022-09-21T17:48:24.781Z,12.60
2022-09-21T17:50:52.501Z,12.60
2022-09-21T17:53:37.050Z,12.60
2022-09-21T17:56:25.701Z,12.50
2022-09-21T17:59:05.020Z,12.40
2022-09-21T18:01:40.489Z,12.40
2022-09-21T18:04:13.304Z,12.40
2022-09-21T18:06:40.884Z,12.30
2022-09-21T18:09:10.409Z,12.30
2022-09-21T18:12:15.449Z,12.20
2022-09-21T18:15:11.764Z,12.20
2022-09-21T18:18:07.328Z,12.10
2022-09-21T18:21:02.399Z,12.00
2022-09-21T18:23:52.064Z,11.90
2022-09-21T18:26:20.805Z,11.80
2022-09-21T18:28:58.152Z,11.80
2022-09-21T18:31:42.229Z,11.70
2022-09-21T18:34:31.077Z,11.70
2022-09-21T18:37:24.311Z,11.70
2022-09-21T18:40:36.208Z,11.70
2022-09-21T18:43:31.555Z,11.70
2022-09-21T18:46:03.766Z,11.70
2022-09-21T18:49:00.259Z,11.70
2022-09-21T18:51:45.782Z,11.70
2022-09-21T18:54:24.859Z,11.60
2022-09-21T18:56:52.422Z,11.60
2022-09-21T18:59:20.171Z,11.50
2022-09-21T19:01:48.817Z,11.40
2022-09-21T19:04:19.667Z,11.40
2022-09-21T19:07:00.456Z,11.40
2022-09-21T19:09:46.215Z,11.40
2022-09-21T19:12:28.776Z,11.40
2022-09-21T19:15:15.448Z,11.40
2022-09-21T19:17:49.066Z,11.40
2022-09-21T19:20:41.873Z,11.30
2022-09-21T19:23:28.203Z,11.30
2022-09-21T19:26:17.673Z,11.30
2022-09-21T19:29:09.150Z,11.20
2022-09-21T19:31:40.094Z,11.10
2022-09-21T19:34:16.176Z,11.10
2022-09-21T19:36:47.299Z,11.00
2022-09-21T19:39:15.599Z,11.00
2022-09-21T19:42:13.829Z,10.90
2022-09-21T19:44:59.603Z,10.90
2022-09-21T19:47:48.366Z,10.90
2022-09-21T19:50:18.355Z,10.80
2022-09-21T19:52:46.817Z,10.80
2022-09-21T19:55:38.823Z,10.80
2022-09-21T19:58:25.522Z,10.80
2022-09-21T20:00:55.552Z,10.70
2022-09-21T20:03:42.209Z,10.60
2022-09-21T20:06:29.397Z,10.60
2022-09-21T20:09:26.136Z,10.60
2022-09-21T20:12:16.346Z,10.50
2022-09-21T20:14:53.221Z,10.30
2022-09-21T20:17:46.446Z,10.30
2022-09-21T20:20:24.155Z,10.30
2022-09-21T20:22:51.989Z,10.20
2022-09-21T20:25:34.815Z,10.20
2022-09-21T20:28:03.918Z,10.20
2022-09-21T20:30:34.681Z,10.10
2022-09-21T20:33:10.897Z,10.20
2022-09-21T20:35:38.255Z,10.20
2022-09-21T20:38:05.658Z,10.20
2022-09-21T20:40:33.574Z,10.20
2022-09-21T20:43:01.486Z,10.20
2022-09-21T20:45:30.207Z,10.20
2022-09-21T20:48:13.172Z,10.10
2022-09-21T20:50:46.293Z,10.10
2022-09-21T20:53:14.057Z,10.00
2022-09-21T20:55:42.107Z,10.00
2022-09-21T20:58:13.143Z,10.00
2022-09-21T21:00:40.618Z,10.00
2022-09-21T21:03:08.035Z,9.90
2022-09-21T21:05:35.426Z,9.90
2022-09-21T21:08:03.844Z,10.00
2022-09-21T21:10:31.991Z,9.90
2022-09-21T21:12:59.384Z,9.90
2022-09-21T21:15:27.242Z,9.80
2022-09-21T21:17:54.915Z,9.90
2022-09-21T21:20:22.747Z,9.80
2022-09-21T21:22:51.746Z,9.80
2022-09-21T21:25:19.122Z,9.70
2022-09-21T21:27:46.558Z,9.60
2022-09-21T21:30:14.234Z,9.60
2022-09-21T21:32:42.888Z,9.50
2022-09-21T21:35:10.342Z,9.50
2022-09-21T21:37:37.813Z,9.60
2022-09-21T21:40:05.865Z,9.60
2022-09-21T21:42:34.379Z,9.60
2022-09-21T21:45:01.774Z,9.50
2022-09-21T21:47:44.606Z,9.40
2022-09-21T21:50:12.297Z,9.40
2022-09-21T21:52:40.614Z,9.40
2022-09-21T21:55:08.519Z,9.40
2022-09-21T21:57:35.893Z,9.40
2022-09-21T22:00:06.108Z,9.40
2022-09-21T22:02:33.640Z,9.40
2022-09-21T22:05:01.164Z,9.40
2022-09-21T22:07:28.720Z,9.40
2022-09-21T22:09:56.098Z,9.40
2022-09-21T22:12:23.609Z,9.40
2022-09-21T22:14:50.951Z,9.30
2022-09-21T22:17:19.237Z,9.30
2022-09-21T22:19:47.135Z,9.30
2022-09-21T22:22:14.503Z,9.20
2022-09-21T22:24:41.879Z,9.20
2022-09-21T22:27:09.290Z,9.20
2022-09-21T22:29:36.686Z,9.20
2022-09-21T22:32:04.310Z,9.20
2022-09-21T22:34:31.804Z,9.30
2022-09-21T22:37:00.640Z,9.30
2022-09-21T22:39:28.221Z,9.30
2022-09-21T22:41:55.568Z,9.30
2022-09-21T22:44:22.974Z,9.30
2022-09-21T22:46:50.302Z,9.30
2022-09-21T22:49:17.729Z,9.40
2022-09-21T22:51:45.033Z,9.40
2022-09-21T22:54:12.404Z,9.30
2022-09-21T22:56:39.744Z,9.30
2022-09-21T22:59:07.266Z,9.30
2022-09-21T23:01:37.816Z,9.30
2022-09-21T23:04:13.254Z,9.20
2022-09-21T23:06:43.325Z,9.20
2022-09-21T23:09:20.043Z,9.20
2022-09-21T23:11:53.989Z,9.20
2022-09-21T23:14:22.826Z,9.10
2022-09-21T23:16:50.605Z,9.20
2022-09-21T23:19:18.019Z,9.20
2022-09-21T23:21:49.598Z,9.20
2022-09-21T23:24:18.001Z,9.10
2022-09-21T23:26:45.735Z,9.20
2022-09-21T23:29:15.406Z,9.20
2022-09-21T23:31:45.749Z,9.20
2022-09-21T23:34:14.899Z,9.20
2022-09-21T23:36:43.061Z,9.30
2022-09-21T23:39:12.498Z,9.30
2022-09-21T23:41:39.932Z,9.20
2022-09-21T23:44:07.784Z,9.20
2022-09-21T23:46:37.893Z,9.20
2022-09-21T23:49:06.322Z,9.20
2022-09-21T23:51:34.072Z,9.20
2022-09-21T23:54:01.962Z,9.10
2022-09-21T23:56:30.381Z,9.10
2022-09-21T23:58:58.535Z,9.00
